Time;durP1;ratioP1;P1;durP2;ratioP2;P2;SDS_P1;SDS_P2;PMS_P1;PMS_P2;Temp;Humidity;BMP_temperature;BMP_pressure;BME280_temperature;BME280_humidity;BME280_pressure;Samples;Min_cycle;Max_cycle;Signal;HPM_P1;HPM_P2
2020/12/10 00:00:24;;;;;;;59.30;22.27;;;3.90;99.90;;;;;;5021447;28;20195;-45
2020/12/10 00:02:49;;;;;;;60.17;23.80;;;3.90;99.90;;;;;;5017424;28;20204;-43
2020/12/10 00:05:15;;;;;;;65.53;24.90;;;3.90;99.90;;;;;;5017773;28;20679;-54
2020/12/10 00:07:41;;;;;;;59.90;24.87;;;3.90;99.90;;;;;;4989676;28;20286;-45
2020/12/10 00:10:09;;;;;;;60.30;23.40;;;3.90;99.90;;;;;;5003064;28;20177;-53
2020/12/10 00:12:39;;;;;;;69.20;24.63;;;3.80;99.90;;;;;;5002092;28;20299;-41
2020/12/10 00:15:04;;;;;;;67.07;25.13;;;3.80;99.90;;;;;;5002636;28;20188;-53
2020/12/10 00:17:30;;;;;;;60.10;25.07;;;3.90;99.90;;;;;;5002816;28;20169;-42
2020/12/10 00:19:56;;;;;;;68.93;25.00;;;3.80;99.90;;;;;;5006729;28;20184;-42
2020/12/10 00:22:23;;;;;;;64.93;25.33;;;3.80;99.90;;;;;;4986784;28;20325;-57
2020/12/10 00:24:48;;;;;;;65.07;24.47;;;3.80;99.90;;;;;;5001082;28;20188;-42
2020/12/10 00:27:15;;;;;;;69.57;26.03;;;3.80;99.90;;;;;;4999693;28;20229;-51
2020/12/10 00:29:41;;;;;;;66.27;24.47;;;3.80;99.90;;;;;;5009419;28;20199;-43
2020/12/10 00:32:10;;;;;;;63.70;24.43;;;3.90;99.90;;;;;;5007769;28;20209;-54
2020/12/10 00:34:36;;;;;;;69.50;25.73;;;3.90;99.90;;;;;;4999813;28;20868;-43
2020/12/10 00:37:02;;;;;;;67.30;25.40;;;3.90;99.90;;;;;;5006351;28;20191;-46
2020/12/10 00:39:27;;;;;;;70.87;26.43;;;3.80;99.90;;;;;;4977379;28;20184;-44
2020/12/10 00:41:53;;;;;;;68.57;26.20;;;3.80;99.90;;;;;;5006993;28;20662;-42
2020/12/10 00:44:19;;;;;;;66.27;27.03;;;3.80;99.90;;;;;;5005753;28;20189;-56
2020/12/10 00:46:45;;;;;;;74.77;27.27;;;3.80;99.90;;;;;;5004216;28;20610;-42
2020/12/10 00:49:10;;;;;;;79.47;28.43;;;3.80;99.90;;;;;;5001251;28;20642;-54
2020/12/10 00:51:36;;;;;;;68.97;27.67;;;3.80;99.90;;;;;;5003087;28;20212;-49
2020/12/10 00:54:01;;;;;;;80.03;27.83;;;3.80;99.90;;;;;;5005074;28;20236;-41
2020/12/10 00:56:34;;;;;;;71.00;27.47;;;3.80;99.90;;;;;;4988061;28;20283;-45
2020/12/10 00:58:59;;;;;;;68.93;26.23;;;3.80;99.90;;;;;;5013410;28;20654;-43
2020/12/10 01:01:25;;;;;;;72.70;27.30;;;3.80;99.90;;;;;;5007528;28;20259;-46
2020/12/10 01:03:50;;;;;;;64.53;24.83;;;3.80;99.90;;;;;;4997139;28;20575;-45
2020/12/10 01:06:16;;;;;;;69.60;26.57;;;3.80;99.90;;;;;;5003232;28;20641;-49
2020/12/10 01:08:41;;;;;;;70.23;26.23;;;3.80;99.90;;;;;;5004794;28;20389;-42
2020/12/10 01:11:07;;;;;;;63.10;27.07;;;3.80;99.90;;;;;;4979630;28;20205;-54
2020/12/10 01:13:32;;;;;;;61.50;25.90;;;3.80;99.90;;;;;;4998933;28;20205;-46
2020/12/10 01:15:58;;;;;;;66.37;25.53;;;3.80;99.90;;;;;;5001637;28;20624;-41
2020/12/10 01:18:23;;;;;;;64.27;24.40;;;3.80;99.90;;;;;;4996230;28;20185;-54
2020/12/10 01:20:48;;;;;;;63.30;25.80;;;3.90;99.90;;;;;;5005471;28;20614;-45
2020/12/10 01:23:14;;;;;;;67.20;26.77;;;3.90;99.90;;;;;;5003134;28;20210;-53
2020/12/10 01:25:39;;;;;;;71.20;28.30;;;3.90;99.90;;;;;;5003685;28;20177;-45
2020/12/10 01:28:05;;;;;;;60.07;25.83;;;3.90;99.90;;;;;;4990002;28;20344;-54
2020/12/10 01:30:30;;;;;;;59.13;26.23;;;3.80;99.90;;;;;;5004041;28;20210;-43
2020/12/10 01:32:56;;;;;;;60.57;25.93;;;3.80;99.90;;;;;;5005673;28;20305;-47
2020/12/10 01:35:22;;;;;;;60.83;26.13;;;3.90;99.90;;;;;;5001322;28;20195;-54
2020/12/10 01:37:48;;;;;;;66.63;26.70;;;3.90;99.90;;;;;;5003044;28;20291;-43
2020/12/10 01:40:13;;;;;;;62.57;26.57;;;3.90;99.90;;;;;;5005630;28;20187;-50
2020/12/10 01:42:38;;;;;;;66.77;25.27;;;3.90;99.90;;;;;;4984947;28;20897;-46
2020/12/10 01:45:04;;;;;;;55.23;24.40;;;3.90;99.90;;;;;;4993140;28;20185;-54
2020/12/10 01:47:31;;;;;;;60.70;25.50;;;3.90;99.90;;;;;;4996068;28;20267;-42
2020/12/10 01:49:57;;;;;;;53.80;25.40;;;3.90;99.90;;;;;;5005179;28;20188;-44
2020/12/10 01:52:22;;;;;;;59.67;25.90;;;3.80;99.90;;;;;;4995455;28;20216;-53
2020/12/10 01:54:47;;;;;;;55.00;24.77;;;3.90;99.90;;;;;;5004010;28;20219;-44
2020/12/10 01:57:13;;;;;;;58.77;25.90;;;3.90;99.90;;;;;;4983287;28;20662;-54
2020/12/10 01:59:39;;;;;;;60.87;26.10;;;3.90;99.90;;;;;;5004255;28;20280;-42
2020/12/10 02:02:04;;;;;;;62.40;25.87;;;3.90;99.90;;;;;;5004210;28;20184;-54
2020/12/10 02:04:36;;;;;;;59.97;24.93;;;3.90;99.90;;;;;;4996082;28;20196;-48
2020/12/10 02:07:03;;;;;;;64.07;26.27;;;3.90;99.90;;;;;;4999516;28;20209;-45
2020/12/10 02:09:29;;;;;;;64.83;27.20;;;3.90;99.90;;;;;;5000685;28;20192;-45
2020/12/10 02:11:55;;;;;;;65.47;27.20;;;3.90;99.90;;;;;;5000525;28;20208;-43
2020/12/10 02:14:21;;;;;;;64.40;26.83;;;3.90;99.90;;;;;;4986307;28;20553;-57
2020/12/10 02:16:53;;;;;;;60.77;26.37;;;3.90;99.90;;;;;;5002682;28;20247;-42
2020/12/10 02:19:18;;;;;;;61.30;27.63;;;3.90;99.90;;;;;;4997124;28;20208;-54
2020/12/10 02:21:44;;;;;;;64.40;27.20;;;3.90;99.90;;;;;;5000903;28;20197;-44
2020/12/10 02:24:13;;;;;;;58.80;26.43;;;3.80;99.90;;;;;;5002880;28;20212;-53
2020/12/10 02:26:39;;;;;;;62.63;25.83;;;3.80;99.90;;;;;;5000399;28;20197;-44
2020/12/10 02:29:04;;;;;;;61.37;25.77;;;3.80;99.90;;;;;;4987965;28;20263;-55
2020/12/10 02:31:31;;;;;;;62.40;26.80;;;3.80;99.90;;;;;;4997793;28;20267;-42
2020/12/10 02:33:58;;;;;;;60.87;25.97;;;3.80;99.90;;;;;;5000643;28;20211;-43
2020/12/10 02:36:24;;;;;;;68.10;28.13;;;3.90;99.90;;;;;;5019249;28;20172;-44
2020/12/10 02:38:50;;;;;;;54.67;26.17;;;3.80;99.90;;;;;;5005079;28;20265;-42
2020/12/10 02:41:15;;;;;;;57.37;27.13;;;3.80;99.90;;;;;;4998967;28;20589;-55
2020/12/10 02:43:41;;;;;;;71.60;29.10;;;3.90;99.90;;;;;;5002660;28;20275;-45
2020/12/10 02:46:07;;;;;;;63.60;27.47;;;3.90;99.90;;;;;;4977364;28;20247;-55
2020/12/10 02:48:32;;;;;;;66.10;27.13;;;3.90;99.90;;;;;;4990573;28;22675;-46
2020/12/10 02:51:00;;;;;;;73.60;28.73;;;3.80;99.90;;;;;;5003689;28;20717;-43
2020/12/10 02:53:27;;;;;;;63.50;27.47;;;3.80;99.90;;;;;;4999061;28;20866;-41
2020/12/10 02:55:52;;;;;;;61.37;27.17;;;3.90;99.90;;;;;;5003917;28;20239;-43
2020/12/10 02:58:17;;;;;;;67.73;27.57;;;3.90;99.90;;;;;;5010262;28;20192;-51
2020/12/10 03:00:43;;;;;;;61.70;27.90;;;3.80;99.90;;;;;;4995120;28;20311;-45
2020/12/10 03:03:08;;;;;;;65.40;26.90;;;3.80;99.90;;;;;;4997938;28;20697;-53
2020/12/10 03:05:34;;;;;;;61.27;26.57;;;3.80;99.90;;;;;;5001653;28;20277;-44
2020/12/10 03:07:59;;;;;;;58.97;26.37;;;3.80;99.90;;;;;;5022645;28;20194;-46
2020/12/10 03:10:25;;;;;;;62.93;26.00;;;3.80;99.90;;;;;;5005714;28;20214;-44
2020/12/10 03:12:50;;;;;;;58.30;26.03;;;3.80;99.90;;;;;;5001758;28;20216;-44
2020/12/10 03:15:16;;;;;;;58.60;25.17;;;3.80;99.90;;;;;;4986417;28;20226;-54
2020/12/10 03:17:41;;;;;;;51.80;24.90;;;3.70;99.90;;;;;;5002738;28;20180;-46
2020/12/10 03:20:07;;;;;;;47.13;22.27;;;3.70;99.90;;;;;;5016120;28;20222;-55
2020/12/10 03:22:32;;;;;;;52.17;24.23;;;3.70;99.90;;;;;;5012675;28;20843;-42
2020/12/10 03:24:57;;;;;;;48.40;23.77;;;3.70;99.90;;;;;;5018695;28;20668;-45
2020/12/10 03:27:23;;;;;;;48.37;23.33;;;3.70;99.90;;;;;;4997087;28;20832;-54
2020/12/10 03:29:48;;;;;;;54.37;24.03;;;3.70;99.90;;;;;;5005262;28;20200;-41
2020/12/10 03:32:14;;;;;;;50.13;23.87;;;3.70;99.90;;;;;;4979946;28;20209;-54
2020/12/10 03:34:39;;;;;;;50.20;23.07;;;3.70;99.90;;;;;;5001454;28;20331;-45
2020/12/10 03:37:05;;;;;;;52.80;23.77;;;3.70;99.90;;;;;;5015072;28;20182;-55
2020/12/10 03:39:31;;;;;;;51.73;23.03;;;3.70;99.90;;;;;;5022766;28;20169;-42
2020/12/10 03:41:58;;;;;;;55.47;24.47;;;3.70;99.90;;;;;;5006978;28;20192;-42
2020/12/10 03:44:24;;;;;;;43.93;22.33;;;3.70;99.90;;;;;;5002894;28;20199;-48
2020/12/10 03:46:50;;;;;;;49.40;23.73;;;3.70;99.90;;;;;;4991354;28;20197;-44
2020/12/10 03:49:15;;;;;;;44.23;22.53;;;3.60;99.90;;;;;;4991459;28;20276;-55
2020/12/10 03:51:41;;;;;;;42.63;21.47;;;3.60;99.90;;;;;;5014917;28;20274;-46
2020/12/10 03:54:06;;;;;;;43.97;21.33;;;3.60;99.90;;;;;;4998630;28;20611;-55
2020/12/10 03:56:32;;;;;;;43.20;21.47;;;3.60;99.90;;;;;;5006973;28;20185;-48
2020/12/10 03:59:02;;;;;;;39.03;21.63;;;3.60;99.90;;;;;;5001330;28;20984;-53
2020/12/10 04:01:28;;;;;;;43.50;19.53;;;3.60;99.90;;;;;;5023538;28;20502;-46
2020/12/10 04:03:54;;;;;;;35.67;20.47;;;3.60;99.90;;;;;;4989757;28;20684;-43
2020/12/10 04:06:19;;;;;;;40.43;20.53;;;3.60;99.90;;;;;;5001561;28;20952;-42
2020/12/10 04:08:45;;;;;;;42.13;21.43;;;3.60;99.90;;;;;;5000450;28;20212;-43
2020/12/10 04:11:11;;;;;;;38.77;20.17;;;3.60;99.90;;;;;;5003179;28;20235;-54
2020/12/10 04:13:36;;;;;;;37.40;19.27;;;3.60;99.90;;;;;;5004051;28;20227;-52
2020/12/10 04:16:03;;;;;;;40.87;19.47;;;3.60;99.90;;;;;;5024195;28;20176;-55
2020/12/10 04:18:30;;;;;;;40.03;19.67;;;3.50;99.90;;;;;;4998617;28;21288;-45
2020/12/10 04:20:55;;;;;;;36.03;18.63;;;3.50;99.90;;;;;;5009215;28;20212;-52
2020/12/10 04:23:21;;;;;;;41.30;20.40;;;3.50;99.90;;;;;;5007858;28;20943;-46
2020/12/10 04:25:51;;;;;;;38.37;19.53;;;3.50;99.90;;;;;;5010281;28;20180;-42
2020/12/10 04:28:16;;;;;;;35.90;19.47;;;3.50;99.90;;;;;;5009899;28;20199;-43
2020/12/10 04:30:42;;;;;;;37.53;19.40;;;3.50;99.90;;;;;;5025074;28;20703;-43
2020/12/10 04:33:07;;;;;;;35.50;18.70;;;3.50;99.90;;;;;;5004520;28;20266;-56
2020/12/10 04:35:33;;;;;;;35.90;19.57;;;3.50;99.90;;;;;;5006855;28;20195;-43
2020/12/10 04:37:58;;;;;;;31.27;18.67;;;3.50;99.90;;;;;;5002773;28;20188;-52
2020/12/10 04:40:23;;;;;;;37.73;19.87;;;3.50;99.90;;;;;;5016612;28;20259;-48
2020/12/10 04:42:49;;;;;;;36.47;19.33;;;3.50;99.90;;;;;;5024747;28;20204;-54
2020/12/10 04:45:15;;;;;;;36.30;19.07;;;3.50;99.90;;;;;;5020916;28;20262;-47
2020/12/10 04:47:41;;;;;;;36.87;19.13;;;3.60;99.90;;;;;;5025080;28;20264;-43
2020/12/10 04:50:15;;;;;;;36.93;18.47;;;3.50;99.90;;;;;;4996172;28;20189;-54
2020/12/10 04:52:42;;;;;;;34.30;18.57;;;3.50;99.90;;;;;;4999591;28;20254;-47
2020/12/10 04:55:08;;;;;;;36.63;19.17;;;3.50;99.90;;;;;;5000651;28;20190;-54
2020/12/10 04:57:34;;;;;;;41.73;20.87;;;3.50;99.90;;;;;;5002698;28;20188;-42
2020/12/10 04:59:59;;;;;;;36.07;18.20;;;3.50;99.90;;;;;;5004353;28;20921;-50
2020/12/10 05:02:25;;;;;;;32.57;17.47;;;3.50;99.90;;;;;;4999417;28;21443;-42
2020/12/10 05:04:53;;;;;;;28.83;17.20;;;3.50;99.90;;;;;;5001466;28;20204;-54
2020/12/10 05:07:18;;;;;;;34.37;18.97;;;3.50;99.90;;;;;;4983144;28;20185;-44
2020/12/10 05:10:04;;;;;;;38.00;18.30;;;3.50;99.90;;;;;;5001055;28;20196;-43
2020/12/10 05:12:29;;;;;;;36.37;18.27;;;3.50;99.90;;;;;;5003653;28;20223;-44
2020/12/10 05:14:55;;;;;;;33.43;17.53;;;3.50;99.90;;;;;;5004529;28;20188;-52
2020/12/10 05:17:20;;;;;;;34.93;17.90;;;3.50;99.90;;;;;;5002703;28;20203;-46
2020/12/10 05:19:57;;;;;;;34.57;17.70;;;3.50;99.90;;;;;;5003509;28;20227;-41
2020/12/10 05:22:23;;;;;;;33.23;17.43;;;3.50;99.90;;;;;;4979584;28;20205;-47
2020/12/10 05:24:59;;;;;;;31.60;18.13;;;3.40;99.90;;;;;;4995905;28;20210;-50
2020/12/10 05:27:25;;;;;;;28.63;16.57;;;3.40;99.90;;;;;;5006229;28;20216;-42
2020/12/10 05:29:51;;;;;;;30.17;16.73;;;3.40;99.90;;;;;;5006210;28;20247;-54
2020/12/10 05:32:31;;;;;;;33.50;18.03;;;3.40;99.90;;;;;;4996318;28;20224;-42
2020/12/10 05:34:57;;;;;;;34.03;18.43;;;3.50;99.90;;;;;;4991812;28;20744;-55
2020/12/10 05:37:27;;;;;;;39.90;18.47;;;3.40;99.90;;;;;;4992887;28;20243;-47
2020/12/10 05:39:58;;;;;;;37.43;19.03;;;3.50;99.90;;;;;;5004680;28;20263;-53
2020/12/10 05:42:25;;;;;;;35.93;18.10;;;3.50;99.90;;;;;;4999658;28;20976;-41
2020/12/10 05:44:51;;;;;;;34.77;17.63;;;3.40;99.90;;;;;;5004697;28;20260;-56
2020/12/10 05:47:16;;;;;;;34.63;19.03;;;3.50;99.90;;;;;;5001541;28;20181;-42
2020/12/10 05:49:42;;;;;;;35.40;17.33;;;3.40;99.90;;;;;;5005098;28;20181;-44
2020/12/10 05:52:13;;;;;;;34.87;18.67;;;3.50;99.90;;;;;;4975445;28;20276;-52
2020/12/10 05:54:42;;;;;;;35.07;19.00;;;3.40;99.90;;;;;;5013626;28;20908;-42
2020/12/10 05:57:08;;;;;;;38.03;18.87;;;3.50;99.90;;;;;;4993545;28;20178;-56
2020/12/10 05:59:34;;;;;;;39.97;19.53;;;3.50;99.90;;;;;;5003727;28;20246;-46
2020/12/10 06:02:07;;;;;;;46.00;20.37;;;3.40;99.90;;;;;;5002279;28;20226;-51
2020/12/10 06:04:33;;;;;;;43.63;20.13;;;3.40;99.90;;;;;;4981045;28;20281;-45
2020/12/10 06:07:01;;;;;;;51.77;20.87;;;3.40;99.90;;;;;;4979095;28;20199;-46
2020/12/10 06:09:27;;;;;;;49.77;21.97;;;3.40;99.90;;;;;;4993516;28;20200;-42
2020/12/10 06:12:07;;;;;;;44.20;20.20;;;3.40;99.90;;;;;;4998465;28;20220;-55
2020/12/10 06:14:49;;;;;;;53.97;22.97;;;3.40;99.90;;;;;;5004230;28;20212;-46
2020/12/10 06:17:14;;;;;;;57.80;23.13;;;3.40;99.90;;;;;;5001560;28;20201;-46
2020/12/10 06:19:40;;;;;;;53.93;23.67;;;3.40;99.90;;;;;;5002502;28;20214;-53
2020/12/10 06:22:28;;;;;;;52.53;23.17;;;3.40;99.90;;;;;;4981791;28;20189;-42
2020/12/10 06:25:29;;;;;;;51.97;23.13;;;3.40;99.90;;;;;;4989786;28;20231;-54
2020/12/10 06:28:17;;;;;;;57.17;23.53;;;3.40;99.90;;;;;;4984143;28;20291;-47
2020/12/10 06:31:03;;;;;;;51.57;21.50;;;3.40;99.90;;;;;;4995692;28;20260;-41
2020/12/10 06:33:40;;;;;;;62.03;23.83;;;3.40;99.90;;;;;;5001887;28;20693;-54
2020/12/10 06:36:19;;;;;;;65.63;25.10;;;3.40;99.90;;;;;;4997321;28;20551;-42
2020/12/10 06:38:44;;;;;;;61.20;24.27;;;3.40;99.90;;;;;;4987604;28;20181;-46
2020/12/10 06:41:10;;;;;;;72.13;25.33;;;3.40;99.90;;;;;;4993247;28;20196;-45
2020/12/10 06:43:38;;;;;;;61.10;25.07;;;3.40;99.90;;;;;;4996084;28;20210;-44
2020/12/10 06:46:04;;;;;;;59.93;24.50;;;3.40;99.90;;;;;;4996153;28;20176;-44
2020/12/10 06:48:45;;;;;;;58.43;24.80;;;3.40;99.90;;;;;;5013724;28;20184;-52
2020/12/10 06:51:11;;;;;;;66.87;25.13;;;3.40;99.90;;;;;;5022985;28;20229;-41
2020/12/10 06:53:37;;;;;;;57.80;23.97;;;3.30;99.90;;;;;;4986742;28;20214;-43
2020/12/10 06:56:05;;;;;;;47.50;22.80;;;3.30;99.90;;;;;;4986025;28;20194;-44
2020/12/10 06:58:41;;;;;;;50.60;22.03;;;3.30;99.90;;;;;;4992744;28;20184;-52
2020/12/10 07:01:27;;;;;;;47.87;19.20;;;3.30;99.90;;;;;;5005905;28;20200;-45
2020/12/10 07:04:09;;;;;;;40.87;19.23;;;3.30;99.90;;;;;;5021438;28;20925;-44
2020/12/10 07:06:35;;;;;;;36.43;17.83;;;3.30;99.90;;;;;;5015200;28;20179;-49
2020/12/10 07:09:14;;;;;;;40.33;17.60;;;3.20;99.90;;;;;;4984045;28;20201;-45
2020/12/10 07:11:42;;;;;;;39.37;18.57;;;3.20;99.90;;;;;;4990540;28;20195;-41
2020/12/10 07:14:28;;;;;;;38.47;18.17;;;3.20;99.90;;;;;;4999683;28;20597;-43
2020/12/10 07:16:55;;;;;;;34.00;17.27;;;3.20;99.90;;;;;;5018141;28;20401;-41
2020/12/10 07:19:21;;;;;;;41.13;18.57;;;3.20;99.90;;;;;;5007561;28;20256;-50
2020/12/10 07:21:48;;;;;;;41.33;19.20;;;3.20;99.90;;;;;;5000437;28;20176;-41
2020/12/10 07:24:13;;;;;;;38.37;17.37;;;3.20;99.90;;;;;;5000747;28;20201;-49
2020/12/10 07:26:41;;;;;;;35.73;17.63;;;3.20;99.90;;;;;;4986531;28;20226;-40
2020/12/10 07:29:07;;;;;;;37.80;18.00;;;3.20;99.90;;;;;;5007408;28;20310;-42
2020/12/10 07:31:32;;;;;;;38.37;18.43;;;3.30;99.90;;;;;;5012528;28;20744;-53
2020/12/10 07:33:58;;;;;;;42.87;18.97;;;3.30;99.90;;;;;;4998129;28;20200;-43
2020/12/10 07:36:26;;;;;;;37.37;18.80;;;3.30;99.90;;;;;;5001873;28;20185;-53
2020/12/10 07:38:52;;;;;;;41.50;17.80;;;3.30;99.90;;;;;;5000993;28;20454;-46
2020/12/10 07:41:18;;;;;;;37.27;17.53;;;3.30;99.90;;;;;;4986018;28;20203;-55
2020/12/10 07:43:48;;;;;;;42.20;19.20;;;3.30;99.90;;;;;;4991512;28;20287;-45
2020/12/10 07:46:14;;;;;;;47.13;18.47;;;3.30;99.90;;;;;;5003758;28;20219;-44
2020/12/10 07:48:40;;;;;;;40.90;17.37;;;3.20;99.90;;;;;;4998295;28;20196;-42
2020/12/10 07:51:06;;;;;;;43.93;19.47;;;3.20;99.90;;;;;;4998291;28;20635;-49
2020/12/10 07:53:32;;;;;;;40.17;18.80;;;3.20;99.90;;;;;;4997356;28;20232;-46
2020/12/10 07:56:00;;;;;;;41.13;18.37;;;3.20;99.90;;;;;;5009766;28;20194;-57
2020/12/10 07:58:51;;;;;;;42.70;19.63;;;3.20;99.90;;;;;;4981917;28;20192;-43
2020/12/10 08:01:16;;;;;;;39.13;19.50;;;3.20;99.90;;;;;;5005841;28;20175;-50
2020/12/10 08:04:03;;;;;;;48.90;19.93;;;3.20;99.90;;;;;;5016142;28;20262;-41
2020/12/10 08:06:31;;;;;;;45.10;19.33;;;3.20;99.90;;;;;;4996156;28;20986;-47
2020/12/10 08:09:01;;;;;;;46.87;19.13;;;3.20;99.90;;;;;;5003084;28;20199;-55
2020/12/10 08:11:27;;;;;;;45.17;19.03;;;3.20;99.90;;;;;;4991179;28;20250;-55
2020/12/10 08:14:00;;;;;;;42.03;19.10;;;3.20;99.90;;;;;;4954731;28;20209;-53
2020/12/10 08:16:45;;;;;;;48.97;20.33;;;3.20;99.90;;;;;;4990408;28;22966;-42
2020/12/10 08:19:13;;;;;;;50.83;22.20;;;3.20;99.90;;;;;;4972681;28;20876;-47
2020/12/10 08:21:38;;;;;;;48.37;19.77;;;3.20;99.90;;;;;;5000479;28;20661;-50
2020/12/10 08:24:04;;;;;;;46.10;20.03;;;3.10;99.90;;;;;;4996644;28;20279;-55
2020/12/10 08:26:30;;;;;;;44.27;20.67;;;3.10;99.90;;;;;;4977610;28;20185;-52
2020/12/10 08:28:57;;;;;;;49.30;23.57;;;3.10;99.90;;;;;;4976365;28;20946;-47
2020/12/10 08:31:26;;;;;;;52.67;21.27;;;3.10;99.90;;;;;;4982639;28;20902;-42
2020/12/10 08:33:53;;;;;;;50.73;23.70;;;3.10;99.90;;;;;;4996218;28;20212;-44
2020/12/10 08:36:29;;;;;;;52.07;23.10;;;3.10;99.90;;;;;;4985629;28;20199;-52
2020/12/10 08:38:56;;;;;;;52.70;22.80;;;3.10;99.90;;;;;;5005085;28;20187;-46
2020/12/10 08:41:28;;;;;;;63.37;25.07;;;3.00;99.90;;;;;;4985791;28;20296;-44
2020/12/10 08:43:55;;;;;;;56.23;23.63;;;3.00;99.90;;;;;;4985836;28;20752;-42
2020/12/10 08:46:21;;;;;;;58.97;23.70;;;3.00;99.90;;;;;;4996169;28;20188;-53
2020/12/10 08:48:47;;;;;;;59.93;24.70;;;3.10;99.90;;;;;;4999180;28;20196;-42
2020/12/10 08:51:13;;;;;;;58.90;23.93;;;3.10;99.90;;;;;;4994696;28;20188;-43
2020/12/10 08:53:45;;;;;;;65.47;24.53;;;3.10;99.90;;;;;;5009179;28;20920;-47
2020/12/10 08:56:26;;;;;;;65.20;24.77;;;3.10;99.90;;;;;;4994166;28;20194;-47
2020/12/10 08:58:52;;;;;;;63.43;24.77;;;3.20;99.90;;;;;;5001806;28;20656;-44
2020/12/10 09:01:17;;;;;;;65.20;26.33;;;3.20;99.90;;;;;;4981302;28;20185;-41
2020/12/10 09:03:43;;;;;;;66.23;23.97;;;3.20;99.90;;;;;;4992840;28;20217;-42
2020/12/10 09:06:09;;;;;;;64.93;25.00;;;3.20;99.90;;;;;;5011555;28;20254;-53
2020/12/10 09:08:34;;;;;;;67.57;26.30;;;3.20;99.90;;;;;;5014481;28;20884;-44
2020/12/10 09:11:00;;;;;;;68.40;25.60;;;3.10;99.90;;;;;;4998789;28;20731;-50
2020/12/10 09:13:25;;;;;;;71.80;25.63;;;3.20;99.90;;;;;;5005750;28;20255;-45
2020/12/10 09:15:52;;;;;;;71.57;26.73;;;3.10;99.90;;;;;;4984596;28;20656;-41
2020/12/10 09:18:17;;;;;;;72.20;27.40;;;3.10;99.90;;;;;;4995590;28;20196;-53
2020/12/10 09:20:43;;;;;;;73.37;27.20;;;3.20;99.90;;;;;;4994685;28;20185;-46
2020/12/10 09:23:10;;;;;;;61.37;27.03;;;3.10;99.90;;;;;;5000168;28;20205;-51
2020/12/10 09:25:36;;;;;;;64.97;25.57;;;3.20;99.90;;;;;;5012701;28;20168;-42
2020/12/10 09:28:02;;;;;;;67.87;26.13;;;3.20;99.90;;;;;;5005358;28;20212;-54
2020/12/10 09:30:28;;;;;;;74.83;26.07;;;3.20;99.90;;;;;;4983478;28;20202;-49
2020/12/10 09:32:54;;;;;;;72.43;25.80;;;3.10;99.90;;;;;;5005523;28;20208;-44
2020/12/10 09:35:19;;;;;;;66.13;25.83;;;3.10;99.90;;;;;;4991209;28;20243;-53
2020/12/10 09:37:45;;;;;;;69.33;24.10;;;3.10;99.90;;;;;;5002328;28;20188;-45
2020/12/10 09:40:12;;;;;;;67.43;26.10;;;3.20;99.90;;;;;;5003095;28;20180;-52
2020/12/10 09:42:39;;;;;;;61.83;25.67;;;3.20;99.90;;;;;;5002856;28;20197;-42
2020/12/10 09:45:06;;;;;;;57.33;22.83;;;3.20;99.90;;;;;;5016429;28;20539;-54
2020/12/10 09:47:31;;;;;;;55.13;23.07;;;3.10;99.90;;;;;;4993404;28;20845;-50
2020/12/10 09:49:57;;;;;;;49.70;21.83;;;3.10;99.90;;;;;;4999348;28;20204;-44
2020/12/10 09:52:23;;;;;;;49.87;22.43;;;3.10;99.90;;;;;;4984153;28;21110;-47
2020/12/10 09:54:58;;;;;;;47.63;20.50;;;3.10;99.90;;;;;;5007968;28;20191;-44
2020/12/10 09:57:30;;;;;;;50.60;20.93;;;3.20;99.90;;;;;;5000938;28;20171;-46
2020/12/10 09:59:59;;;;;;;48.70;22.50;;;3.20;99.90;;;;;;5002826;28;20177;-48
2020/12/10 10:02:25;;;;;;;47.90;22.83;;;3.20;99.90;;;;;;4987398;28;20880;-41
2020/12/10 10:04:51;;;;;;;50.13;21.83;;;3.20;99.90;;;;;;4996996;28;20200;-47
2020/12/10 10:07:17;;;;;;;46.43;21.83;;;3.20;99.90;;;;;;4992728;28;20240;-54
2020/12/10 10:09:43;;;;;;;52.83;24.07;;;3.20;99.90;;;;;;5007419;28;20652;-46
2020/12/10 10:12:09;;;;;;;43.87;21.50;;;3.20;99.90;;;;;;5020267;28;20613;-51
2020/12/10 10:14:36;;;;;;;56.00;23.17;;;3.20;99.90;;;;;;5006988;28;20203;-45
2020/12/10 10:17:05;;;;;;;48.07;23.07;;;3.20;99.90;;;;;;4989539;28;20235;-55
2020/12/10 10:19:31;;;;;;;45.30;23.03;;;3.10;99.90;;;;;;5000167;28;20203;-41
2020/12/10 10:21:56;;;;;;;55.80;23.83;;;3.20;99.90;;;;;;5021733;28;20175;-48
2020/12/10 10:24:23;;;;;;;48.33;22.23;;;3.20;99.90;;;;;;4995779;28;20184;-45
2020/12/10 10:26:49;;;;;;;53.57;23.87;;;3.20;99.90;;;;;;5001919;28;20172;-46
2020/12/10 10:29:19;;;;;;;58.50;24.10;;;3.20;99.90;;;;;;5004690;28;20226;-48
2020/12/10 10:31:45;;;;;;;52.07;24.40;;;3.20;99.90;;;;;;4999728;28;20714;-43
2020/12/10 10:34:11;;;;;;;63.07;24.63;;;3.20;99.90;;;;;;5009101;28;20348;-46
2020/12/10 10:36:36;;;;;;;57.83;25.00;;;3.20;99.90;;;;;;5004395;28;20188;-46
2020/12/10 10:39:02;;;;;;;59.37;24.63;;;3.20;99.90;;;;;;4996732;28;20188;-47
2020/12/10 10:41:27;;;;;;;53.10;24.43;;;3.20;99.90;;;;;;5000437;28;20200;-43
2020/12/10 10:43:53;;;;;;;52.73;24.20;;;3.20;99.90;;;;;;4999504;28;20302;-45
2020/12/10 10:46:19;;;;;;;62.83;26.83;;;3.20;99.90;;;;;;4997906;28;20260;-47
2020/12/10 10:48:45;;;;;;;59.30;25.27;;;3.30;99.90;;;;;;4985682;28;20696;-48
2020/12/10 10:51:14;;;;;;;63.87;27.17;;;3.30;99.90;;;;;;5001171;28;21073;-47
2020/12/10 10:53:40;;;;;;;54.53;24.87;;;3.30;99.90;;;;;;5003278;28;21265;-46
2020/12/10 10:56:06;;;;;;;59.33;26.03;;;3.30;99.90;;;;;;5003996;28;20194;-46
2020/12/10 10:58:31;;;;;;;61.23;25.80;;;3.30;99.90;;;;;;4993197;28;20919;-46
2020/12/10 11:00:57;;;;;;;57.50;25.67;;;3.30;99.90;;;;;;5003750;28;20732;-46
2020/12/10 11:03:22;;;;;;;59.30;25.77;;;3.30;99.90;;;;;;4979863;28;21100;-44
2020/12/10 11:05:48;;;;;;;56.53;25.17;;;3.30;99.90;;;;;;4988729;28;20173;-45
2020/12/10 11:08:14;;;;;;;57.77;25.47;;;3.40;99.90;;;;;;4989001;28;20664;-46
2020/12/10 11:10:39;;;;;;;59.17;26.30;;;3.30;99.90;;;;;;4996613;28;20192;-46
2020/12/10 11:13:05;;;;;;;57.37;26.00;;;3.40;99.90;;;;;;5008553;28;20215;-48
2020/12/10 11:15:31;;;;;;;56.30;24.60;;;3.40;99.90;;;;;;5005946;28;20184;-44
2020/12/10 11:17:57;;;;;;;55.97;25.50;;;3.40;99.90;;;;;;5009316;28;20241;-49
2020/12/10 11:20:22;;;;;;;61.53;25.83;;;3.40;99.90;;;;;;4978139;28;20189;-47
2020/12/10 11:22:48;;;;;;;60.17;25.90;;;3.40;99.90;;;;;;4988630;28;20215;-48
2020/12/10 11:25:13;;;;;;;66.87;28.53;;;3.40;99.90;;;;;;5000325;28;20612;-45
2020/12/10 11:27:39;;;;;;;61.97;27.60;;;3.40;99.90;;;;;;5001159;28;20192;-49
2020/12/10 11:30:06;;;;;;;63.47;26.67;;;3.50;99.90;;;;;;4992689;28;20280;-49
2020/12/10 11:32:31;;;;;;;70.23;28.37;;;3.50;99.90;;;;;;5003252;28;20364;-49
2020/12/10 11:34:57;;;;;;;67.23;28.53;;;3.40;99.90;;;;;;4993493;28;20376;-46
2020/12/10 11:37:22;;;;;;;77.30;30.70;;;3.40;99.90;;;;;;5000438;28;20166;-46
2020/12/10 11:39:48;;;;;;;74.20;30.87;;;3.30;99.90;;;;;;4974969;28;20223;-44
2020/12/10 11:42:13;;;;;;;77.33;29.07;;;3.30;99.90;;;;;;4979907;28;20193;-44
2020/12/10 11:44:41;;;;;;;77.77;29.87;;;3.40;99.90;;;;;;4993189;28;20208;-46
2020/12/10 11:47:07;;;;;;;72.13;28.97;;;3.40;99.90;;;;;;4989264;28;20193;-46
2020/12/10 11:49:33;;;;;;;70.60;30.27;;;3.40;99.90;;;;;;4992255;28;20239;-47
2020/12/10 11:51:58;;;;;;;74.77;29.97;;;3.30;99.90;;;;;;4995327;28;20224;-48
2020/12/10 11:54:24;;;;;;;73.77;29.93;;;3.30;99.90;;;;;;5001891;28;20263;-48
2020/12/10 11:56:55;;;;;;;71.90;28.87;;;3.30;99.90;;;;;;5001585;28;20219;-45
2020/12/10 11:59:21;;;;;;;72.13;29.07;;;3.40;99.90;;;;;;4981610;28;20196;-46
2020/12/10 12:01:47;;;;;;;75.53;29.47;;;3.30;99.90;;;;;;4992668;28;20219;-44
2020/12/10 12:04:13;;;;;;;71.53;30.37;;;3.40;99.90;;;;;;5012298;28;20677;-46
2020/12/10 12:06:38;;;;;;;86.40;29.27;;;3.40;99.90;;;;;;4987488;28;20198;-46
2020/12/10 12:09:04;;;;;;;76.57;29.03;;;3.40;99.90;;;;;;5011591;28;20235;-44
2020/12/10 12:11:29;;;;;;;68.50;29.23;;;3.40;99.90;;;;;;4994140;28;20179;-46
2020/12/10 12:13:55;;;;;;;73.00;28.73;;;3.50;99.90;;;;;;4999393;28;20221;-46
2020/12/10 12:16:20;;;;;;;75.50;30.20;;;3.40;99.90;;;;;;4992268;28;20189;-52
2020/12/10 12:18:46;;;;;;;69.90;28.63;;;3.50;99.90;;;;;;5007050;28;20234;-43
2020/12/10 12:21:12;;;;;;;70.60;28.30;;;3.40;99.90;;;;;;4988909;28;20200;-43
2020/12/10 12:23:37;;;;;;;73.10;28.83;;;3.50;99.90;;;;;;4991279;28;20201;-50
2020/12/10 12:26:03;;;;;;;70.57;28.47;;;3.50;99.90;;;;;;5002300;28;20562;-45
2020/12/10 12:28:29;;;;;;;66.33;27.23;;;3.50;99.90;;;;;;4997877;28;20197;-50
2020/12/10 12:30:55;;;;;;;64.63;27.67;;;3.40;99.90;;;;;;5012989;28;20287;-45
2020/12/10 12:33:20;;;;;;;57.23;25.97;;;3.40;99.90;;;;;;5010638;28;20223;-47
2020/12/10 12:35:47;;;;;;;65.20;26.87;;;3.40;99.90;;;;;;5011347;28;20192;-46